Time;durP1;ratioP1;P1;durP2;ratioP2;P2;SDS_P1;SDS_P2;PMS_P1;PMS_P2;Temp;Humidity;BMP_temperature;BMP_pressure;BME280_temperature;BME280_humidity;BME280_pressure;Samples;Min_cycle;Max_cycle;Signal;HPM_P1;HPM_P2
2021/11/21 00:00:14;;;;;;;20.10;9.35;;;;;;;4.43;100.00;97286.47;5083719;28;20052;-65
2021/11/21 00:02:40;;;;;;;22.85;11.38;;;;;;;3.87;100.00;97223.63;5083507;28;20066;-65
2021/11/21 00:05:07;;;;;;;21.10;11.40;;;;;;;4.48;100.00;97300.03;5083312;28;20113;-64
2021/11/21 00:07:34;;;;;;;30.35;13.13;;;;;;;4.32;100.00;97290.69;5083272;28;20083;-64
2021/11/21 00:10:01;;;;;;;22.88;10.43;;;;;;;4.54;98.98;97309.69;5083483;28;20044;-65
2021/11/21 00:12:28;;;;;;;24.92;11.82;;;;;;;4.53;100.00;97313.59;5081747;28;20165;-65
2021/11/21 00:14:55;;;;;;;31.15;13.52;;;;;;;4.56;100.00;97310.19;5083535;28;20040;-64
2021/11/21 00:17:21;;;;;;;30.80;14.65;;;;;;;4.55;100.00;97303.06;5081152;28;20529;-65
2021/11/21 00:19:48;;;;;;;40.05;18.27;;;;;;;4.63;100.00;97307.75;5081629;28;20442;-67
2021/11/21 00:22:15;;;;;;;35.22;15.15;;;;;;;4.58;100.00;97293.41;5070177;28;20044;-64
2021/11/21 00:24:43;;;;;;;35.42;14.65;;;;;;;4.31;100.00;97242.47;5061967;28;20058;-64
2021/11/21 00:27:11;;;;;;;28.85;11.85;;;;;;;4.63;100.00;97299.50;5062113;28;20056;-64
2021/11/21 00:29:38;;;;;;;32.30;11.73;;;;;;;4.52;100.00;97295.50;5061529;28;20049;-64
2021/11/21 00:32:05;;;;;;;33.25;12.43;;;;;;;4.54;99.87;97293.25;5062635;28;20053;-66
2021/11/21 00:34:33;;;;;;;24.42;11.70;;;;;;;4.58;99.71;97296.94;5062864;28;20517;-64
2021/11/21 00:37:00;;;;;;;32.70;13.02;;;;;;;4.56;98.67;97291.00;5062782;28;20052;-64
2021/11/21 00:39:26;;;;;;;29.40;11.65;;;;;;;4.45;99.47;97288.91;5062755;28;20503;-64
2021/11/21 00:41:55;;;;;;;41.67;15.02;;;;;;;4.43;100.00;97291.97;5062361;28;20067;-64
2021/11/21 00:44:22;;;;;;;15.20;7.25;;;;;;;4.20;99.12;97254.09;5061684;28;20056;-66
2021/11/21 00:46:49;;;;;;;12.20;5.90;;;;;;;4.39;98.85;97285.50;5062355;28;20052;-64
2021/11/21 00:49:17;;;;;;;9.50;5.05;;;;;;;4.33;99.58;97289.56;5066053;28;20087;-65
2021/11/21 00:51:45;;;;;;;13.80;5.82;;;;;;;4.35;98.67;97289.22;5066298;28;20056;-64
2021/11/21 00:56:49;;;;;;;21.45;9.82;;;;;;;4.33;96.89;97286.81;5066149;28;20064;-67
2021/11/21 00:59:22;;;;;;;18.88;8.50;;;;;;;4.16;95.98;97286.00;5064804;28;20082;-66
2021/11/21 01:01:51;;;;;;;14.13;6.80;;;;;;;3.61;95.25;97209.16;5066162;28;20061;-64
2021/11/21 01:04:19;;;;;;;13.77;6.72;;;;;;;3.91;94.87;97287.63;5066378;28;20068;-64
2021/11/21 01:06:46;;;;;;;14.43;6.35;;;;;;;2.98;97.05;97187.00;5064536;28;20056;-65
2021/11/21 01:09:14;;;;;;;14.07;6.70;;;;;;;3.60;98.42;97259.56;5065772;28;20054;-67
2021/11/21 01:11:41;;;;;;;17.55;7.03;;;;;;;3.64;98.91;97287.94;5065855;28;20159;-65
2021/11/21 01:14:08;;;;;;;12.20;6.15;;;;;;;3.59;99.75;97282.59;5065987;28;20060;-65
2021/11/21 01:16:36;;;;;;;15.70;8.13;;;;;;;3.69;100.00;97282.28;5065567;28;20446;-65
2021/11/21 01:19:03;;;;;;;11.82;7.15;;;;;;;3.20;100.00;97184.13;5064335;28;20071;-65
2021/11/21 01:21:30;;;;;;;15.07;8.35;;;;;;;3.87;100.00;97272.94;5071638;28;20055;-64
2021/11/21 01:23:57;;;;;;;17.85;8.88;;;;;;;3.90;100.00;97255.91;5085795;28;20464;-64
2021/11/21 01:26:24;;;;;;;20.27;9.50;;;;;;;3.95;100.00;97269.41;5086328;28;20052;-64
2021/11/21 01:28:51;;;;;;;15.57;8.52;;;;;;;3.84;100.00;97248.94;5086319;28;20055;-65
2021/11/21 01:31:18;;;;;;;23.55;9.55;;;;;;;3.00;100.00;97121.81;5085965;28;20427;-66
2021/11/21 01:33:46;;;;;;;13.13;5.78;;;;;;;3.70;100.00;97198.97;5084363;28;20055;-64
2021/11/21 01:36:13;;;;;;;9.63;5.10;;;;;;;3.94;100.00;97267.00;5086104;28;21150;-65
2021/11/21 01:38:41;;;;;;;10.13;4.95;;;;;;;3.46;100.00;97217.84;5083877;28;20526;-64
2021/11/21 01:41:08;;;;;;;10.30;5.15;;;;;;;3.86;100.00;97265.88;5084245;28;20047;-65
2021/11/21 01:43:34;;;;;;;11.43;5.75;;;;;;;3.38;100.00;97199.47;5085670;28;20062;-65
2021/11/21 01:46:02;;;;;;;13.20;6.38;;;;;;;3.31;100.00;97193.66;5085958;28;20052;-65
2021/11/21 01:48:29;;;;;;;12.73;6.05;;;;;;;3.85;100.00;97252.50;5085291;28;20095;-66
2021/11/21 01:51:00;;;;;;;11.43;5.40;;;;;;;3.80;100.00;97260.88;5085652;28;20048;-64
2021/11/21 01:53:26;;;;;;;9.77;5.50;;;;;;;3.78;100.00;97257.66;5083924;28;20139;-65
2021/11/21 01:55:54;;;;;;;11.35;5.25;;;;;;;3.42;100.00;97203.16;5085250;28;20054;-65
2021/11/21 01:58:20;;;;;;;7.85;4.88;;;;;;;3.84;100.00;97257.16;5084490;28;20441;-65
2021/11/21 02:00:48;;;;;;;12.25;4.30;;;;;;;3.93;100.00;97254.44;5085137;28;20059;-65
2021/11/21 02:03:17;;;;;;;8.73;4.47;;;;;;;3.98;100.00;97252.31;5083655;28;20048;-65
2021/11/21 02:05:46;;;;;;;11.93;5.22;;;;;;;4.06;100.00;97259.75;5085607;28;20062;-65
2021/11/21 02:08:14;;;;;;;11.95;6.28;;;;;;;3.93;100.00;97240.72;5084241;28;20062;-65
2021/11/21 02:10:41;;;;;;;17.73;7.93;;;;;;;3.78;97.14;97252.97;5084808;28;20051;-66
2021/11/21 02:13:09;;;;;;;12.95;6.95;;;;;;;3.48;94.51;97221.03;5083652;28;20058;-64
2021/11/21 02:15:38;;;;;;;13.05;7.00;;;;;;;3.57;95.07;97252.00;5085098;28;20058;-66
2021/11/21 02:18:05;;;;;;;9.05;5.10;;;;;;;3.56;95.06;97239.41;5084868;28;20059;-65
2021/11/21 02:20:35;;;;;;;13.80;5.93;;;;;;;3.39;95.82;97249.53;5082512;28;20056;-65
2021/11/21 02:23:04;;;;;;;10.57;5.35;;;;;;;3.37;98.10;97246.34;5064271;28;20053;-65
2021/11/21 02:25:31;;;;;;;15.05;7.28;;;;;;;3.27;98.37;97241.97;5063293;28;20138;-65
2021/11/21 02:27:59;;;;;;;15.10;6.85;;;;;;;3.29;98.86;97245.16;5064206;28;20523;-64
2021/11/21 02:30:25;;;;;;;12.98;7.13;;;;;;;3.24;99.46;97242.56;5064440;28;20059;-65
2021/11/21 02:32:54;;;;;;;16.60;7.43;;;;;;;3.32;99.07;97239.06;5063162;28;20629;-65
2021/11/21 02:35:23;;;;;;;13.80;6.97;;;;;;;3.29;98.85;97239.69;5063766;28;20117;-65
2021/11/21 02:37:51;;;;;;;14.60;6.28;;;;;;;3.34;99.84;97239.53;5064068;28;20048;-65
2021/11/21 02:40:18;;;;;;;21.13;8.40;;;;;;;3.38;100.00;97236.97;5064022;28;20423;-65
2021/11/21 02:42:46;;;;;;;19.85;10.38;;;;;;;3.49;100.00;97233.63;5064727;28;20508;-65
2021/11/21 02:45:17;;;;;;;39.05;14.52;;;;;;;3.48;100.00;97242.94;5062424;28;20059;-65
2021/11/21 02:47:45;;;;;;;54.50;18.05;;;;;;;3.48;100.00;97242.94;5064073;28;20135;-65
2021/11/21 02:50:31;;;;;;;45.20;14.75;;;;;;;2.65;100.00;97087.31;5064155;28;20060;-66
2021/11/21 02:52:59;;;;;;;30.60;10.07;;;;;;;3.58;100.00;97220.75;5062626;28;20044;-66
2021/11/21 02:55:30;;;;;;;27.20;11.43;;;;;;;3.53;100.00;97228.28;5062062;28;20048;-64
2021/11/21 02:57:58;;;;;;;24.08;9.30;;;;;;;3.15;100.00;97167.88;5064420;28;20147;-65
2021/11/21 03:00:25;;;;;;;21.05;8.93;;;;;;;3.31;100.00;97184.63;5062143;28;20059;-65
2021/11/21 03:02:52;;;;;;;18.55;8.07;;;;;;;3.55;100.00;97221.38;5063918;28;20045;-65
2021/11/21 03:05:20;;;;;;;14.65;6.22;;;;;;;3.56;100.00;97225.72;5062114;28;20422;-65
2021/11/21 03:07:48;;;;;;;15.25;6.75;;;;;;;3.65;100.00;97221.06;5063776;28;20439;-65
2021/11/21 03:10:20;;;;;;;16.77;6.55;;;;;;;3.56;100.00;97203.81;5061578;28;20067;-65
2021/11/21 03:12:55;;;;;;;12.02;5.53;;;;;;;3.29;100.00;97174.00;5063430;28;20629;-65
2021/11/21 03:15:22;;;;;;;14.60;6.15;;;;;;;3.59;100.00;97222.34;5062090;28;20435;-66
2021/11/21 03:17:49;;;;;;;17.60;8.23;;;;;;;3.65;100.00;97215.56;5063705;28;20062;-66
2021/11/21 03:20:21;;;;;;;18.88;8.68;;;;;;;3.69;100.00;97222.03;5063690;28;20155;-67
2021/11/21 03:22:48;;;;;;;14.98;6.82;;;;;;;3.71;100.00;97214.31;5079910;28;20052;-66
2021/11/21 03:25:15;;;;;;;17.35;7.53;;;;;;;3.70;100.00;97222.84;5084097;28;20055;-65
2021/11/21 03:27:43;;;;;;;17.38;7.25;;;;;;;3.65;100.00;97221.06;5083751;28;20083;-65
2021/11/21 03:30:13;;;;;;;21.10;6.95;;;;;;;3.47;99.23;97213.97;5083613;28;20048;-65
2021/11/21 03:32:40;;;;;;;16.35;7.28;;;;;;;3.05;100.00;97141.63;5082462;28;20511;-67
2021/11/21 03:35:08;;;;;;;12.55;5.90;;;;;;;3.47;100.00;97218.63;5081841;28;20056;-65
2021/11/21 03:37:36;;;;;;;18.08;6.50;;;;;;;3.12;98.88;97168.50;5083692;28;20074;-65
2021/11/21 03:40:06;;;;;;;16.50;6.65;;;;;;;3.23;96.28;97186.22;5083514;28;20044;-65
2021/11/21 03:42:33;;;;;;;11.05;5.55;;;;;;;3.33;95.96;97215.22;5083796;28;20532;-66
2021/11/21 03:45:00;;;;;;;10.75;5.75;;;;;;;3.27;96.05;97214.59;5082691;28;20082;-65
2021/11/21 03:47:27;;;;;;;10.52;5.85;;;;;;;3.12;97.33;97217.75;5082477;28;20062;-65
2021/11/21 03:49:53;;;;;;;16.00;8.38;;;;;;;3.19;99.29;97217.31;5083772;28;20055;-65
2021/11/21 03:52:20;;;;;;;18.13;8.65;;;;;;;3.11;100.00;97216.16;5083528;28;20051;-65
2021/11/21 03:54:47;;;;;;;52.53;22.08;;;;;;;2.62;100.00;97120.78;5083537;28;20051;-66
2021/11/21 03:57:14;;;;;;;52.22;24.15;;;;;;;3.20;100.00;97219.72;5083435;28;20059;-65
2021/11/21 03:59:41;;;;;;;31.83;15.30;;;;;;;3.26;100.00;97218.44;5081543;28;20044;-65
2021/11/21 04:02:08;;;;;;;29.73;12.57;;;;;;;2.85;100.00;97150.44;5083273;28;20048;-65
2021/11/21 04:04:35;;;;;;;29.80;14.23;;;;;;;3.35;100.00;97226.66;5083675;28;20143;-65
2021/11/21 04:07:03;;;;;;;29.45;13.48;;;;;;;3.40;100.00;97224.56;5083089;28;20052;-67
2021/11/21 04:09:31;;;;;;;39.92;17.73;;;;;;;2.90;100.00;97179.56;5082011;28;20056;-65
2021/11/21 04:11:57;;;;;;;26.63;13.30;;;;;;;3.34;100.00;97225.84;5082823;28;20048;-66
2021/11/21 04:14:25;;;;;;;29.88;13.35;;;;;;;3.38;98.79;97226.84;5083726;28;20048;-65
2021/11/21 04:16:51;;;;;;;22.55;11.13;;;;;;;3.17;98.96;97203.94;5083458;28;20048;-66
2021/11/21 04:19:18;;;;;;;20.48;11.13;;;;;;;3.10;98.69;97209.06;5083153;28;20047;-65
2021/11/21 04:21:45;;;;;;;18.05;8.52;;;;;;;3.21;98.02;97236.94;5074793;28;20071;-64
2021/11/21 04:24:15;;;;;;;17.02;8.32;;;;;;;2.75;97.15;97171.81;5066963;28;20082;-65
2021/11/21 04:26:46;;;;;;;28.88;8.32;;;;;;;2.68;97.81;97168.72;5065063;28;20092;-66
2021/11/21 04:29:13;;;;;;;20.00;11.32;;;;;;;2.85;100.00;97232.50;5066586;28;20045;-67
2021/11/21 04:31:40;;;;;;;20.23;11.23;;;;;;;2.94;100.00;97229.78;5066366;28;20044;-65
2021/11/21 04:34:07;;;;;;;18.05;10.00;;;;;;;3.04;100.00;97241.25;5066889;28;20063;-65
2021/11/21 04:36:34;;;;;;;16.38;6.90;;;;;;;2.98;100.00;97233.50;5066133;28;20056;-66
2021/11/21 04:39:01;;;;;;;13.35;7.03;;;;;;;3.00;100.00;97225.78;5065452;28;20503;-65
2021/11/21 04:41:27;;;;;;;13.73;7.88;;;;;;;2.44;99.71;97146.44;5066897;28;20131;-64
2021/11/21 04:43:54;;;;;;;17.30;9.05;;;;;;;3.08;99.82;97222.28;5066771;28;20048;-63
2021/11/21 04:46:21;;;;;;;16.55;7.55;;;;;;;2.23;100.00;97112.59;5066339;28;20430;-63
2021/11/21 04:48:48;;;;;;;15.55;7.30;;;;;;;2.88;100.00;97220.09;5066140;28;20057;-64
2021/11/21 04:51:14;;;;;;;18.70;7.68;;;;;;;3.01;100.00;97221.91;5064707;28;20059;-63
2021/11/21 04:53:41;;;;;;;15.20;7.97;;;;;;;2.29;100.00;97089.47;5063700;28;20048;-67
2021/11/21 04:56:08;;;;;;;19.10;8.40;;;;;;;2.86;100.00;97164.91;5064724;28;20522;-63
2021/11/21 04:58:35;;;;;;;16.33;8.00;;;;;;;3.02;100.00;97201.63;5066352;28;20052;-64
2021/11/21 05:01:02;;;;;;;17.38;8.30;;;;;;;3.09;100.00;97229.34;5065882;28;20052;-64
2021/11/21 05:03:29;;;;;;;21.98;11.30;;;;;;;3.24;100.00;97217.94;5064651;28;20051;-64
2021/11/21 05:05:56;;;;;;;22.23;11.20;;;;;;;3.18;100.00;97211.00;5062426;28;20048;-64
2021/11/21 05:08:23;;;;;;;15.50;7.45;;;;;;;2.50;99.98;97135.03;5064624;28;20439;-64
2021/11/21 05:10:50;;;;;;;12.05;6.55;;;;;;;2.86;99.63;97219.63;5062669;28;20059;-64
2021/11/21 05:13:17;;;;;;;16.45;6.88;;;;;;;2.98;99.19;97230.75;5063262;28;20049;-63
2021/11/21 05:15:43;;;;;;;15.88;7.93;;;;;;;3.01;99.19;97224.66;5064773;28;20056;-63
2021/11/21 05:18:10;;;;;;;15.13;6.47;;;;;;;2.97;98.63;97226.44;5064273;28;20060;-63
2021/11/21 05:20:37;;;;;;;18.08;7.93;;;;;;;3.01;97.46;97227.38;5066035;28;20055;-64
2021/11/21 05:23:04;;;;;;;21.98;10.70;;;;;;;1.11;96.83;97004.69;5083820;28;20067;-64
2021/11/21 05:25:30;;;;;;;22.08;10.68;;;;;;;2.72;97.12;97229.84;5085822;28;20446;-63
2021/11/21 05:27:57;;;;;;;35.80;16.08;;;;;;;1.85;97.08;97095.06;5085785;28;20060;-63
2021/11/21 05:30:25;;;;;;;42.60;17.17;;;;;;;2.73;96.77;97215.06;5085969;28;20051;-63
2021/11/21 05:32:52;;;;;;;30.83;14.10;;;;;;;2.93;95.63;97236.38;5084847;28;20048;-65
2021/11/21 05:35:19;;;;;;;37.03;13.35;;;;;;;2.82;96.38;97232.31;5085338;28;20062;-63
2021/11/21 05:37:47;;;;;;;32.28;15.45;;;;;;;2.86;97.23;97236.03;5085354;28;20453;-63
2021/11/21 05:40:15;;;;;;;28.60;14.05;;;;;;;2.89;97.66;97244.41;5085401;28;20048;-64
2021/11/21 05:42:42;;;;;;;36.35;18.45;;;;;;;2.80;98.84;97253.69;5085292;28;20059;-66
2021/11/21 05:45:09;;;;;;;33.33;14.38;;;;;;;2.80;99.56;97238.09;5084255;28;20147;-65
2021/11/21 05:47:37;;;;;;;38.95;17.05;;;;;;;1.90;99.55;97082.06;5085118;28;20084;-64
2021/11/21 05:50:06;;;;;;;42.50;19.75;;;;;;;2.92;99.96;97240.25;5083567;28;20048;-65
2021/11/21 05:52:32;;;;;;;47.90;21.33;;;;;;;2.62;99.08;97164.53;5085005;28;20044;-65
2021/11/21 05:54:59;;;;;;;31.95;16.10;;;;;;;3.09;99.28;97237.56;5083901;28;20071;-63
2021/11/21 05:57:26;;;;;;;42.78;16.50;;;;;;;3.25;98.92;97238.72;5084641;28;20056;-64
2021/11/21 05:59:53;;;;;;;41.15;17.30;;;;;;;3.41;98.36;97233.59;5082192;28;20047;-64
2021/11/21 06:02:19;;;;;;;47.67;21.80;;;;;;;3.55;98.32;97237.81;5084577;28;20048;-63
2021/11/21 06:04:46;;;;;;;59.38;26.30;;;;;;;3.31;98.72;97199.13;5084798;28;20491;-63
2021/11/21 06:07:13;;;;;;;59.05;28.15;;;;;;;3.48;97.95;97160.03;5084719;28;20078;-64
2021/11/21 06:09:40;;;;;;;76.85;33.55;;;;;;;4.01;98.14;97245.41;5083540;28;20059;-64
2021/11/21 06:12:07;;;;;;;57.75;26.55;;;;;;;4.14;96.27;97239.75;5084493;28;20054;-65
2021/11/21 06:14:34;;;;;;;59.03;24.90;;;;;;;4.23;95.65;97243.31;5085237;28;20052;-63
2021/11/21 06:17:01;;;;;;;29.35;14.75;;;;;;;4.05;94.04;97246.34;5082817;28;20515;-65
2021/11/21 06:19:27;;;;;;;29.90;15.23;;;;;;;4.29;93.90;97241.19;5084681;28;20058;-63
2021/11/21 06:21:54;;;;;;;23.33;11.20;;;;;;;4.09;92.55;97192.53;5076434;28;20067;-64
2021/11/21 06:24:21;;;;;;;24.17;10.65;;;;;;;4.40;92.05;97240.53;5064387;28;20056;-63
2021/11/21 06:26:48;;;;;;;19.45;9.93;;;;;;;4.40;92.21;97232.28;5063953;28;20438;-63
2021/11/21 06:29:15;;;;;;;22.80;12.90;;;;;;;4.02;92.29;97176.56;5063042;28;20507;-63
2021/11/21 06:31:42;;;;;;;32.88;16.83;;;;;;;4.77;93.08;97229.91;5064505;28;20049;-64
2021/11/21 06:34:09;;;;;;;48.95;22.38;;;;;;;4.43;91.52;97149.38;5063260;28;20127;-63
2021/11/21 06:36:36;;;;;;;63.78;27.42;;;;;;;5.16;91.44;97221.34;5064304;28;20049;-64
2021/11/21 06:39:04;;;;;;;55.80;27.70;;;;;;;4.93;91.20;97173.34;5062830;28;20076;-63
2021/11/21 06:41:30;;;;;;;47.53;21.60;;;;;;;5.39;91.43;97225.44;5064327;28;20049;-63
2021/11/21 06:43:57;;;;;;;64.07;28.58;;;;;;;5.70;91.47;97226.66;5063631;28;20056;-63
2021/11/21 06:46:24;;;;;;;64.05;29.58;;;;;;;5.89;90.45;97218.81;5063657;28;20456;-63
2021/11/21 06:48:51;;;;;;;54.90;26.92;;;;;;;5.74;89.85;97178.13;5062286;28;20056;-63
2021/11/21 06:51:17;;;;;;;58.85;26.88;;;;;;;6.29;89.77;97221.84;5064261;28;20053;-63
2021/11/21 06:53:48;;;;;;;73.05;35.33;;;;;;;6.46;89.33;97216.16;5064178;28;20056;-64
2021/11/21 06:56:17;;;;;;;65.68;31.85;;;;;;;6.50;88.60;97188.75;5064269;28;20056;-64
2021/11/21 06:58:44;;;;;;;64.80;32.25;;;;;;;6.92;87.18;97212.25;5063957;28;20055;-64
2021/11/21 07:01:10;;;;;;;63.88;31.15;;;;;;;7.10;86.42;97208.91;5062049;28;20048;-64
2021/11/21 07:03:37;;;;;;;74.25;35.58;;;;;;;7.25;85.15;97210.19;5063622;28;20064;-64
2021/11/21 07:06:04;;;;;;;86.35;36.20;;;;;;;7.38;85.02;97204.31;5063355;28;20064;-66
2021/11/21 07:08:31;;;;;;;81.45;35.60;;;;;;;7.54;84.88;97187.88;5061391;28;20419;-65
2021/11/21 07:10:58;;;;;;;76.68;35.67;;;;;;;7.83;82.72;97184.03;5064177;28;20143;-65
2021/11/21 07:13:25;;;;;;;69.90;33.38;;;;;;;8.10;82.68;97197.03;5061735;28;20063;-64
2021/11/21 07:15:53;;;;;;;59.05;28.85;;;;;;;8.22;81.12;97197.00;5063467;28;20055;-65
2021/11/21 07:18:20;;;;;;;61.03;30.58;;;;;;;8.04;81.70;97137.75;5063391;28;20052;-64
2021/11/21 07:20:46;;;;;;;74.68;33.35;;;;;;;8.53;81.17;97208.16;5063188;28;20056;-64
2021/11/21 07:23:19;;;;;;;92.68;39.50;;;;;;;8.69;80.75;97186.91;5081843;28;20058;-63
2021/11/21 07:25:45;;;;;;;64.07;29.48;;;;;;;8.17;80.59;97075.84;5083318;28;20430;-64
2021/11/21 07:28:12;;;;;;;44.00;22.85;;;;;;;9.04;79.18;97183.06;5081686;28;20055;-63
2021/11/21 07:30:39;;;;;;;44.63;22.20;;;;;;;9.20;79.57;97185.81;5081917;28;20491;-65
2021/11/21 07:33:06;;;;;;;30.58;17.00;;;;;;;9.06;79.27;97135.75;5082887;28;20129;-67
2021/11/21 07:35:32;;;;;;;29.55;15.50;;;;;;;9.13;78.11;97147.78;5082083;28;20052;-65
2021/11/21 07:37:59;;;;;;;30.50;13.45;;;;;;;8.76;78.36;97131.84;5081611;28;20060;-66
2021/11/21 07:40:26;;;;;;;26.27;14.52;;;;;;;9.30;79.08;97181.72;5083773;28;20043;-63
2021/11/21 07:42:53;;;;;;;24.20;13.35;;;;;;;9.15;79.28;97188.88;5081856;28;20047;-63
2021/11/21 07:45:20;;;;;;;29.13;14.27;;;;;;;9.35;79.84;97179.50;5083416;28;20534;-64
2021/11/21 07:47:47;;;;;;;22.75;12.82;;;;;;;9.28;77.83;97132.31;5082938;28;20056;-64
2021/11/21 07:50:16;;;;;;;28.45;14.55;;;;;;;9.61;78.03;97182.47;5083262;28;20052;-64
2021/11/21 07:52:43;;;;;;;18.65;10.75;;;;;;;9.19;78.27;97126.19;5083396;28;20052;-64
2021/11/21 07:55:11;;;;;;;26.55;12.00;;;;;;;9.74;78.47;97183.13;5081676;28;20054;-65
2021/11/21 07:57:38;;;;;;;24.23;12.60;;;;;;;9.88;77.44;97189.78;5085620;28;20424;-64
2021/11/21 08:00:07;;;;;;;21.15;11.25;;;;;;;9.82;77.74;97118.50;5087350;28;20048;-65
2021/11/21 08:02:34;;;;;;;18.13;10.85;;;;;;;10.19;76.49;97150.16;5087426;28;20052;-65
2021/11/21 08:05:02;;;;;;;22.25;10.70;;;;;;;10.57;75.20;97178.59;5085902;28;20062;-66
2021/11/21 08:07:30;;;;;;;23.13;11.10;;;;;;;10.37;74.91;97154.88;5085846;28;20048;-65
2021/11/21 08:09:57;;;;;;;23.48;11.23;;;;;;;10.55;74.72;97169.88;5087335;28;20059;-67
2021/11/21 08:12:24;;;;;;;16.20;8.93;;;;;;;10.79;74.88;97167.91;5085630;28;20434;-65
2021/11/21 08:14:51;;;;;;;19.10;10.93;;;;;;;10.62;74.86;97158.91;5085961;28;20064;-65
2021/11/21 08:17:18;;;;;;;17.75;10.23;;;;;;;11.08;74.58;97165.25;5087101;28;20503;-66
2021/11/21 08:19:45;;;;;;;18.15;9.85;;;;;;;11.28;74.13;97152.94;5087005;28;20062;-65
2021/11/21 08:22:12;;;;;;;24.35;12.32;;;;;;;11.54;73.70;97171.56;5077038;28;20056;-64
2021/11/21 08:24:38;;;;;;;22.27;11.43;;;;;;;11.73;73.04;97157.59;5066830;28;20067;-64
2021/11/21 08:27:06;;;;;;;23.80;10.95;;;;;;;11.94;71.92;97157.88;5064565;28;20071;-64
2021/11/21 08:29:33;;;;;;;23.80;11.65;;;;;;;11.47;70.86;97060.50;5065188;28;20056;-63
2021/11/21 08:32:00;;;;;;;25.75;12.20;;;;;;;11.90;70.84;97120.97;5066142;28;20140;-64
2021/11/21 08:34:28;;;;;;;30.60;14.02;;;;;;;12.11;71.05;97121.22;5066681;28;20071;-66
2021/11/21 08:36:55;;;;;;;22.33;10.90;;;;;;;12.44;69.80;97132.31;5066785;28;20048;-63
2021/11/21 08:39:22;;;;;;;21.23;10.95;;;;;;;12.53;69.39;97130.06;5065181;28;20574;-64
2021/11/21 08:41:50;;;;;;;14.30;7.85;;;;;;;12.33;68.94;97075.84;5066515;28;20048;-64
2021/11/21 08:44:18;;;;;;;12.23;7.22;;;;;;;12.93;68.58;97132.03;5064840;28;20059;-64
2021/11/21 08:46:46;;;;;;;14.18;6.90;;;;;;;12.60;68.94;97135.66;5065313;28;20148;-65
2021/11/21 08:49:13;;;;;;;14.90;8.20;;;;;;;12.52;69.52;97122.88;5065939;28;20063;-65
2021/11/21 08:51:42;;;;;;;9.23;6.28;;;;;;;11.75;70.13;97088.63;5065951;28;20098;-64
2021/11/21 08:54:10;;;;;;;11.23;6.03;;;;;;;11.92;70.33;97069.44;5064590;28;20182;-65
2021/11/21 08:56:37;;;;;;;10.93;5.95;;;;;;;12.63;69.48;97109.88;5065843;28;20044;-65
2021/11/21 08:59:04;;;;;;;9.52;5.57;;;;;;;12.57;67.78;97085.59;5065930;28;20055;-66
2021/11/21 09:01:31;;;;;;;10.10;5.80;;;;;;;12.34;68.79;97049.69;5066041;28;20594;-64
2021/11/21 09:03:58;;;;;;;11.52;5.15;;;;;;;12.66;67.94;97100.78;5066016;28;20048;-65
2021/11/21 09:06:25;;;;;;;14.40;6.32;;;;;;;12.42;68.31;97059.69;5064333;28;20044;-62
2021/11/21 09:08:51;;;;;;;9.55;4.95;;;;;;;11.52;68.55;96941.66;5064162;28;20061;-64
2021/11/21 09:11:18;;;;;;;14.35;5.55;;;;;;;12.40;70.27;97091.78;5064511;28;20052;-63
2021/11/21 09:13:45;;;;;;;12.65;5.93;;;;;;;12.54;69.08;97103.84;5065662;28;20067;-62
2021/11/21 09:16:12;;;;;;;13.02;6.43;;;;;;;12.77;69.03;97079.44;5066349;28;20056;-64
2021/11/21 09:18:38;;;;;;;10.77;4.30;;;;;;;12.83;68.38;97055.69;5065814;28;20044;-63
2021/11/21 09:21:05;;;;;;;12.90;6.55;;;;;;;13.19;67.92;97067.91;5064066;28;20503;-63
2021/11/21 09:23:32;;;;;;;9.25;4.93;;;;;;;13.36;66.56;97072.78;5085696;28;20586;-63
2021/11/21 09:25:59;;;;;;;6.63;4.78;;;;;;;13.48;66.28;97053.78;5084457;28;20060;-63
2021/11/21 09:28:26;;;;;;;10.10;5.43;;;;;;;13.57;65.07;97051.47;5085860;28;20075;-63
2021/11/21 09:30:54;;;;;;;11.27;5.22;;;;;;;13.64;64.71;97040.34;5085656;28;20055;-65
2021/11/21 09:33:23;;;;;;;10.00;6.55;;;;;;;13.51;65.46;97030.75;5085673;28;20060;-63
2021/11/21 09:35:50;;;;;;;19.08;7.93;;;;;;;13.81;65.35;97033.28;5085720;28;20438;-63
2021/11/21 09:38:19;;;;;;;9.52;5.15;;;;;;;13.89;64.13;97017.41;5085834;28;20081;-63
2021/11/21 09:40:47;;;;;;;7.63;4.32;;;;;;;14.00;63.43;97035.75;5085702;28;20196;-64
2021/11/21 09:43:14;;;;;;;9.15;6.40;;;;;;;14.11;62.83;97019.06;5085899;28;20509;-63
2021/11/21 09:45:41;;;;;;;8.05;5.00;;;;;;;14.40;63.19;97015.97;5084978;28;20071;-64
2021/11/21 09:48:08;;;;;;;13.20;6.90;;;;;;;14.14;62.34;96965.34;5084792;28;20502;-62
2021/11/21 09:50:42;;;;;;;12.15;6.80;;;;;;;14.72;62.01;96999.28;5082924;28;20053;-64
2021/11/21 09:53:09;;;;;;;10.32;5.43;;;;;;;14.82;60.89;97001.28;5083898;28;20063;-63
2021/11/21 09:55:37;;;;;;;13.05;6.10;;;;;;;14.83;60.75;96988.91;5085093;28;20368;-64
2021/11/21 09:58:05;;;;;;;9.30;6.15;;;;;;;14.99;60.90;97003.25;5085423;28;20056;-64
2021/11/21 10:00:34;;;;;;;9.73;5.53;;;;;;;14.97;60.19;97000.06;5083722;28;20486;-65
2021/11/21 10:03:04;;;;;;;20.08;9.45;;;;;;;14.89;60.62;96998.50;5083692;28;20693;-64
2021/11/21 10:05:54;;;;;;;11.73;5.00;;;;;;;14.83;60.56;96988.91;5083410;28;20125;-66
2021/11/21 10:08:24;;;;;;;11.43;4.78;;;;;;;14.73;59.76;96942.31;5083425;28;20537;-63
2021/11/21 10:11:04;;;;;;;8.27;5.47;;;;;;;14.96;60.28;96970.59;5084700;28;20427;-64
2021/11/21 10:13:40;;;;;;;14.30;6.72;;;;;;;15.22;59.38;96972.94;5085085;28;20055;-64
2021/11/21 10:16:16;;;;;;;9.07;5.32;;;;;;;15.03;59.08;96965.78;5085042;28;20048;-64
2021/11/21 10:18:55;;;;;;;11.05;5.55;;;;;;;14.87;59.70;96961.84;5084921;28;20437;-64
2021/11/21 10:21:28;;;;;;;8.65;5.70;;;;;;;14.81;59.68;96957.88;5081639;28;20068;-64
2021/11/21 10:24:28;;;;;;;9.33;5.10;;;;;;;14.67;60.86;96960.63;5063578;28;20084;-63
2021/11/21 10:27:05;;;;;;;9.27;4.97;;;;;;;15.05;59.96;96957.00;5062411;28;20084;-63
2021/11/21 10:29:34;;;;;;;11.18;6.53;;;;;;;15.29;59.36;96945.00;5064242;28;20052;-64
2021/11/21 10:32:12;;;;;;;5.88;3.88;;;;;;;15.28;58.54;96942.59;5062871;28;20098;-62
2021/11/21 10:34:50;;;;;;;7.10;4.25;;;;;;;15.29;57.53;96939.41;5062790;28;20110;-64
2021/11/21 10:37:18;;;;;;;7.03;4.13;;;;;;;15.33;58.11;96934.63;5063592;28;20044;-63
2021/11/21 10:40:08;;;;;;;6.25;3.63;;;;;;;15.42;57.39;96911.88;5063982;28;20052;-64
2021/11/21 10:42:37;;;;;;;11.25;6.07;;;;;;;15.81;57.80;96927.25;5062551;28;20052;-64
2021/11/21 10:45:06;;;;;;;11.00;5.63;;;;;;;15.85;57.18;96921.66;5063703;28;20056;-64
2021/11/21 10:47:50;;;;;;;10.05;5.43;;;;;;;15.44;57.24;96910.28;5064384;28;20045;-62
2021/11/21 10:50:26;;;;;;;13.18;6.50;;;;;;;15.21;59.01;96909.94;5063926;28;20057;-63
2021/11/21 10:52:53;;;;;;;5.63;3.40;;;;;;;14.52;58.75;96842.78;5063774;28;20040;-63
2021/11/21 10:55:20;;;;;;;7.60;4.18;;;;;;;14.75;59.65;96881.34;5063339;28;20052;-63
2021/11/21 10:57:47;;;;;;;6.40;4.10;;;;;;;14.54;59.71;96900.91;5063799;28;20062;-63
2021/11/21 11:00:17;;;;;;;8.00;4.40;;;;;;;14.42;61.01;96892.94;5063177;28;20426;-63
2021/11/21 11:02:44;;;;;;;6.20;3.95;;;;;;;14.49;59.68;96829.66;5061964;28;20048;-63
2021/11/21 11:05:16;;;;;;;10.23;4.50;;;;;;;14.91;59.38;96851.03;5063481;28;20129;-64
2021/11/21 11:07:43;;;;;;;7.60;4.03;;;;;;;14.34;60.72;96880.22;5063133;28;20052;-62
2021/11/21 11:10:34;;;;;;;12.63;6.25;;;;;;;14.61;60.23;96876.63;5063036;28;20056;-63
2021/11/21 11:13:03;;;;;;;6.15;4.00;;;;;;;14.39;59.91;96824.06;5062092;28;20048;-63
2021/11/21 11:15:32;;;;;;;6.10;4.03;;;;;;;14.96;58.96;96867.38;5063539;28;20144;-63
2021/11/21 11:17:59;;;;;;;5.93;3.60;;;;;;;14.90;58.64;96821.56;5063647;28;20049;-62
2021/11/21 11:20:27;;;;;;;8.00;5.00;;;;;;;15.26;58.51;96850.94;5061717;28;20082;-65
2021/11/21 11:22:57;;;;;;;5.38;4.07;;;;;;;15.38;57.93;96867.22;5077777;28;20066;-63
2021/11/21 11:25:30;;;;;;;6.88;3.75;;;;;;;15.05;58.50;96851.81;5081950;28;20151;-63
2021/11/21 11:28:24;;;;;;;6.00;3.70;;;;;;;14.77;58.65;96795.31;5083898;28;20048;-62
2021/11/21 11:30:55;;;;;;;6.53;4.28;;;;;;;14.78;57.67;96774.59;5083201;28;20121;-64
2021/11/21 11:33:24;;;;;;;5.90;3.88;;;;;;;15.30;57.67;96837.72;5081964;28;20058;-62